Time;durP1;ratioP1;P1;durP2;ratioP2;P2;SDS_P1;SDS_P2;PMS_P1;PMS_P2;Temp;Humidity;BMP_temperature;BMP_pressure;BME280_temperature;BME280_humidity;BME280_pressure;Samples;Min_cycle;Max_cycle;Signal;HPM_P1;HPM_P2
2023/12/07 00:01:49;;;;;;;17.08;12.10;;;;;;;;;;5041785;28;20056;-80
2023/12/07 00:04:19;;;;;;;12.23;10.27;;;;;;;;;;5045002;28;20408;-81
2023/12/07 00:06:46;;;;;;;12.27;9.63;;;;;;;;;;5040082;28;20053;-80
2023/12/07 00:09:15;;;;;;;14.43;11.48;;;;;;;;;;5036165;28;20072;-80
2023/12/07 00:11:46;;;;;;;15.90;9.75;;;;;;;;;;5061017;28;20041;-80
2023/12/07 00:14:14;;;;;;;12.02;10.82;;;;;;;;;;5043196;28;20048;-80
2023/12/07 00:16:42;;;;;;;13.90;9.73;;;;;;;;;;5034392;28;20052;-80
2023/12/07 00:19:09;;;;;;;15.50;12.05;;;;;;;;;;5054074;28;20059;-80
2023/12/07 00:21:37;;;;;;;16.33;11.50;;;;;;;;;;5045930;28;20049;-80
2023/12/07 00:24:04;;;;;;;15.18;9.40;;;;;;;;;;5032199;28;20048;-80
2023/12/07 00:26:32;;;;;;;15.32;10.77;;;;;;;;;;5029158;28;21648;-80
2023/12/07 00:29:00;;;;;;;11.55;9.68;;;;;;;;;;5043692;28;20055;-80
2023/12/07 00:31:30;;;;;;;15.27;11.93;;;;;;;;;;5035243;28;20045;-80
2023/12/07 00:33:57;;;;;;;20.42;11.35;;;;;;;;;;5039120;28;20045;-80
2023/12/07 00:36:25;;;;;;;13.85;10.15;;;;;;;;;;5057861;28;20049;-80
2023/12/07 00:38:54;;;;;;;15.43;11.45;;;;;;;;;;5034577;28;20040;-80
2023/12/07 00:41:21;;;;;;;19.52;9.48;;;;;;;;;;5045546;28;20053;-80
2023/12/07 00:43:49;;;;;;;17.80;10.48;;;;;;;;;;5056209;28;20053;-80
2023/12/07 00:46:19;;;;;;;19.35;12.57;;;;;;;;;;5078289;28;20429;-80
2023/12/07 00:48:47;;;;;;;27.85;15.82;;;;;;;;;;5059322;28;20059;-80
2023/12/07 00:51:15;;;;;;;25.08;12.48;;;;;;;;;;5035859;28;20509;-80
2023/12/07 00:53:47;;;;;;;30.27;12.93;;;;;;;;;;5051637;28;20048;-80
2023/12/07 00:56:14;;;;;;;34.17;13.60;;;;;;;;;;5038980;28;20056;-80
2023/12/07 00:58:44;;;;;;;24.42;11.85;;;;;;;;;;5039588;28;20045;-80
2023/12/07 01:01:11;;;;;;;27.38;14.43;;;;;;;;;;5054111;28;20049;-80
2023/12/07 01:03:42;;;;;;;16.30;12.30;;;;;;;;;;5040779;28;20494;-80
2023/12/07 01:06:11;;;;;;;33.83;12.32;;;;;;;;;;5057596;28;20067;-80
2023/12/07 01:08:38;;;;;;;22.17;11.52;;;;;;;;;;5037426;28;20048;-80
2023/12/07 01:11:08;;;;;;;23.83;11.35;;;;;;;;;;5067174;28;20391;-80
2023/12/07 01:13:37;;;;;;;21.15;11.98;;;;;;;;;;5072950;28;20040;-80
2023/12/07 01:16:05;;;;;;;16.38;10.75;;;;;;;;;;5059267;28;20064;-80
2023/12/07 01:18:34;;;;;;;13.80;8.48;;;;;;;;;;5072471;28;20049;-80
2023/12/07 01:21:05;;;;;;;23.55;9.32;;;;;;;;;;5041459;28;20525;-80
2023/12/07 01:23:37;;;;;;;;;;;;;;;;;;5040265;28;20041;-80
2023/12/07 01:26:06;;;;;;;21.20;10.55;;;;;;;;;;5037863;28;19928;-80
2023/12/07 01:28:38;;;;;;;14.50;9.45;;;;;;;;;;5056157;28;20047;-80
2023/12/07 01:31:05;;;;;;;18.48;10.38;;;;;;;;;;5039241;28;20060;-80
2023/12/07 01:33:35;;;;;;;15.05;10.98;;;;;;;;;;5050665;28;20048;-80
2023/12/07 01:36:02;;;;;;;19.05;9.77;;;;;;;;;;5050974;28;20045;-80
2023/12/07 01:38:31;;;;;;;21.95;11.05;;;;;;;;;;5059087;28;20036;-80
2023/12/07 01:40:58;;;;;;;20.00;11.73;;;;;;;;;;5041299;28;20051;-80
2023/12/07 01:43:25;;;;;;;20.95;11.32;;;;;;;;;;5056959;28;20049;-80
2023/12/07 01:45:53;;;;;;;39.22;12.25;;;;;;;;;;5034751;28;20044;-80
2023/12/07 01:48:20;;;;;;;68.15;14.88;;;;;;;;;;5038917;28;20076;-80
2023/12/07 01:50:48;;;;;;;45.25;10.07;;;;;;;;;;5072699;23;20063;-79
2023/12/07 01:53:16;;;;;;;41.17;11.95;;;;;;;;;;5035267;28;20045;-78
2023/12/07 01:55:44;;;;;;;35.53;10.73;;;;;;;;;;5039698;28;20574;-78
2023/12/07 01:58:18;;;;;;;37.85;11.60;;;;;;;;;;5033633;28;20048;-79
2023/12/07 02:00:46;;;;;;;32.00;10.30;;;;;;;;;;5031652;28;20047;-79
2023/12/07 02:03:17;;;;;;;22.52;10.85;;;;;;;;;;5032601;28;20431;-79
2023/12/07 02:05:48;;;;;;;49.13;9.38;;;;;;;;;;5032611;28;20051;-80
2023/12/07 02:08:18;;;;;;;;;;;;;;;;;;5040337;28;20055;-80
2023/12/07 02:10:49;;;;;;;23.20;8.50;;;;;;;;;;5022364;28;19924;-80
2023/12/07 02:13:17;;;;;;;38.65;11.20;;;;;;;;;;5016243;28;20049;-79
2023/12/07 02:15:44;;;;;;;15.45;6.75;;;;;;;;;;5019621;28;20045;-79
2023/12/07 02:18:16;;;;;;;19.98;8.65;;;;;;;;;;5019513;28;20055;-77
2023/12/07 02:20:52;;;;;;;19.42;10.35;;;;;;;;;;5035403;28;20051;-78
2023/12/07 02:23:19;;;;;;;25.23;8.05;;;;;;;;;;5015293;28;20048;-78
2023/12/07 02:25:52;;;;;;;28.70;8.02;;;;;;;;;;5015969;28;20052;-79
2023/12/07 02:28:21;;;;;;;26.08;8.65;;;;;;;;;;5055504;28;20037;-79
2023/12/07 02:30:48;;;;;;;26.20;9.32;;;;;;;;;;5023035;28;20534;-79
2023/12/07 02:33:15;;;;;;;21.58;8.55;;;;;;;;;;5022197;28;20053;-79
2023/12/07 02:35:45;;;;;;;36.47;9.82;;;;;;;;;;5029992;28;20041;-79
2023/12/07 02:38:12;;;;;;;21.23;10.48;;;;;;;;;;5040739;28;20052;-79
2023/12/07 02:40:40;;;;;;;77.72;16.55;;;;;;;;;;5042165;28;20051;-79
2023/12/07 02:43:08;;;;;;;21.08;10.65;;;;;;;;;;5058131;28;20519;-79
2023/12/07 02:45:36;;;;;;;41.63;12.73;;;;;;;;;;5030763;28;20053;-79
2023/12/07 02:48:04;;;;;;;35.08;10.98;;;;;;;;;;5060476;28;20032;-78
2023/12/07 02:50:31;;;;;;;36.00;10.70;;;;;;;;;;5027791;28;20059;-78
2023/12/07 02:53:01;;;;;;;28.60;10.55;;;;;;;;;;5075990;28;20059;-78
2023/12/07 02:55:28;;;;;;;29.40;12.45;;;;;;;;;;5023183;28;20044;-78
2023/12/07 02:57:55;;;;;;;72.00;14.25;;;;;;;;;;5031824;28;20045;-78
2023/12/07 03:00:23;;;;;;;28.27;11.65;;;;;;;;;;5020122;28;20057;-79
2023/12/07 03:02:51;;;;;;;64.22;15.13;;;;;;;;;;5016072;28;20045;-79
2023/12/07 03:05:22;;;;;;;43.10;11.80;;;;;;;;;;5051637;28;20048;-79
2023/12/07 03:07:50;;;;;;;25.90;11.20;;;;;;;;;;5033869;28;20403;-79
2023/12/07 03:10:17;;;;;;;46.53;12.68;;;;;;;;;;5049577;28;20068;-79
2023/12/07 03:12:47;;;;;;;25.95;10.25;;;;;;;;;;5051763;28;20041;-79
2023/12/07 03:15:19;;;;;;;20.52;8.30;;;;;;;;;;5050698;28;20056;-79
2023/12/07 03:17:46;;;;;;;31.58;9.60;;;;;;;;;;5036470;28;20041;-79
2023/12/07 03:20:15;;;;;;;38.38;8.98;;;;;;;;;;5035845;28;20523;-80
2023/12/07 03:22:44;;;;;;;62.70;11.80;;;;;;;;;;5017530;28;20045;-80
2023/12/07 03:25:14;;;;;;;25.88;10.48;;;;;;;;;;5038111;28;20053;-80
2023/12/07 03:27:46;;;;;;;26.60;11.40;;;;;;;;;;5053419;28;20047;-80
2023/12/07 03:30:15;;;;;;;18.95;10.65;;;;;;;;;;5037716;28;20060;-79
2023/12/07 03:32:43;;;;;;;13.40;8.07;;;;;;;;;;5017256;28;20048;-79
2023/12/07 03:35:10;;;;;;;28.45;9.98;;;;;;;;;;5035658;28;20040;-79
2023/12/07 03:37:38;;;;;;;35.63;12.45;;;;;;;;;;5053543;28;20053;-79
2023/12/07 03:40:11;;;;;;;37.38;12.43;;;;;;;;;;5034040;28;20525;-80
2023/12/07 03:42:45;;;;;;;21.08;8.45;;;;;;;;;;4998698;28;20049;-79
2023/12/07 03:45:13;;;;;;;18.95;8.57;;;;;;;;;;5019230;28;20045;-80
2023/12/07 03:47:42;;;;;;;27.70;9.13;;;;;;;;;;5019073;28;20059;-80
2023/12/07 03:50:14;;;;;;;35.03;9.32;;;;;;;;;;5051574;28;20052;-79
2023/12/07 03:52:45;;;;;;;26.92;8.52;;;;;;;;;;5036024;28;20052;-79
2023/12/07 03:55:17;;;;;;;15.48;6.35;;;;;;;;;;5053283;28;20052;-79
2023/12/07 03:57:47;;;;;;;27.27;9.82;;;;;;;;;;5012944;28;20075;-79
2023/12/07 04:00:16;;;;;;;17.67;8.10;;;;;;;;;;5033955;28;20060;-79
2023/12/07 04:02:43;;;;;;;56.67;13.60;;;;;;;;;;5017695;28;20075;-79
2023/12/07 04:05:12;;;;;;;76.40;14.10;;;;;;;;;;5032848;28;20048;-79
2023/12/07 04:07:39;;;;;;;47.53;12.98;;;;;;;;;;5017835;28;20056;-79
2023/12/07 04:10:13;;;;;;;26.40;8.82;;;;;;;;;;5033228;28;20055;-79
2023/12/07 04:12:42;;;;;;;31.95;8.13;;;;;;;;;;5033422;28;20064;-79
2023/12/07 04:15:12;;;;;;;31.90;12.13;;;;;;;;;;5031351;28;20852;-79
2023/12/07 04:17:39;;;;;;;51.22;14.73;;;;;;;;;;5011806;28;20411;-79
2023/12/07 04:20:08;;;;;;;34.10;10.90;;;;;;;;;;5052650;28;20585;-79
2023/12/07 04:22:38;;;;;;;21.52;9.95;;;;;;;;;;5036539;28;20056;-79
2023/12/07 04:25:06;;;;;;;57.13;11.80;;;;;;;;;;5032753;28;20048;-79
2023/12/07 04:27:35;;;;;;;68.97;13.40;;;;;;;;;;5055237;28;20057;-80
2023/12/07 04:30:06;;;;;;;54.25;18.27;;;;;;;;;;5045213;28;20052;-80
2023/12/07 04:32:33;;;;;;;51.38;12.15;;;;;;;;;;5020179;28;20064;-80
2023/12/07 04:35:04;;;;;;;26.60;9.40;;;;;;;;;;5035698;28;20045;-80
2023/12/07 04:37:31;;;;;;;34.25;12.88;;;;;;;;;;5055665;28;20045;-80
2023/12/07 04:39:58;;;;;;;43.58;13.77;;;;;;;;;;5036549;28;20056;-79
2023/12/07 04:42:30;;;;;;;51.30;12.82;;;;;;;;;;5019439;28;20499;-79
2023/12/07 04:44:59;;;;;;;32.58;8.57;;;;;;;;;;5033076;28;20098;-80
2023/12/07 04:47:28;;;;;;;23.17;10.27;;;;;;;;;;5031575;28;20056;-80
2023/12/07 04:49:55;;;;;;;62.58;13.88;;;;;;;;;;5013706;28;20522;-79
2023/12/07 04:52:25;;;;;;;22.90;9.40;;;;;;;;;;5018227;28;20060;-79
2023/12/07 04:54:55;;;;;;;37.63;10.90;;;;;;;;;;5020151;28;20136;-80
2023/12/07 04:57:22;;;;;;;44.22;14.85;;;;;;;;;;5017235;28;20049;-80
2023/12/07 04:59:49;;;;;;;35.70;13.30;;;;;;;;;;5022708;28;20053;-80
2023/12/07 05:02:20;;;;;;;24.77;11.13;;;;;;;;;;5016256;28;20072;-79
2023/12/07 05:04:50;;;;;;;54.83;12.13;;;;;;;;;;5035998;28;20071;-80
2023/12/07 05:07:17;;;;;;;39.08;10.18;;;;;;;;;;5020373;28;20060;-79
2023/12/07 05:09:46;;;;;;;69.82;11.88;;;;;;;;;;5016818;28;20482;-79
2023/12/07 05:12:14;;;;;;;60.20;12.55;;;;;;;;;;5037704;28;20048;-79
2023/12/07 05:14:41;;;;;;;56.90;13.85;;;;;;;;;;5032471;28;20057;-79
2023/12/07 05:17:11;;;;;;;44.05;13.25;;;;;;;;;;5050211;28;20049;-79
2023/12/07 05:19:40;;;;;;;43.72;12.48;;;;;;;;;;5014602;28;20061;-79
2023/12/07 05:22:07;;;;;;;81.38;18.33;;;;;;;;;;5029907;28;20048;-79
2023/12/07 05:24:36;;;;;;;54.35;13.50;;;;;;;;;;5050534;28;20052;-79
2023/12/07 05:27:06;;;;;;;43.20;13.82;;;;;;;;;;5014982;28;20049;-79
2023/12/07 05:29:33;;;;;;;39.33;14.25;;;;;;;;;;5046602;28;20048;-79
2023/12/07 05:32:00;;;;;;;39.85;14.73;;;;;;;;;;5014916;28;20063;-79
2023/12/07 05:34:30;;;;;;;71.05;12.60;;;;;;;;;;5017663;28;20398;-79
2023/12/07 05:36:58;;;;;;;33.80;13.20;;;;;;;;;;5015898;28;20056;-79
2023/12/07 05:39:28;;;;;;;35.22;10.43;;;;;;;;;;5017424;28;20045;-79
2023/12/07 05:41:55;;;;;;;48.75;12.85;;;;;;;;;;5008587;28;20060;-78
2023/12/07 05:44:22;;;;;;;53.97;12.10;;;;;;;;;;5032271;28;20487;-79
2023/12/07 05:46:51;;;;;;;20.00;10.20;;;;;;;;;;5000683;28;20056;-79
2023/12/07 05:49:18;;;;;;;13.15;7.88;;;;;;;;;;5049141;28;20045;-79
2023/12/07 05:51:45;;;;;;;17.02;7.25;;;;;;;;;;4982190;28;1042057;-79
2023/12/07 05:54:16;;;;;;;37.83;10.88;;;;;;;;;;5036677;28;20049;-79
2023/12/07 05:56:44;;;;;;;25.38;8.63;;;;;;;;;;5011992;28;20061;-80
2023/12/07 05:59:17;;;;;;;19.10;7.70;;;;;;;;;;5017808;28;20545;-80
2023/12/07 06:01:46;;;;;;;30.00;9.63;;;;;;;;;;5049068;28;20530;-80
2023/12/07 06:04:16;;;;;;;26.77;11.43;;;;;;;;;;5037165;28;20075;-80
2023/12/07 06:06:43;;;;;;;33.67;10.40;;;;;;;;;;5024849;28;20650;-79
2023/12/07 06:09:11;;;;;;;13.95;9.63;;;;;;;;;;5042062;28;20060;-79
2023/12/07 06:11:40;;;;;;;32.42;9.45;;;;;;;;;;5016781;28;20037;-79
2023/12/07 06:14:07;;;;;;;30.38;8.02;;;;;;;;;;5035659;28;20600;-80
2023/12/07 06:16:35;;;;;;;25.27;10.93;;;;;;;;;;5019103;28;20535;-80
2023/12/07 06:19:02;;;;;;;14.35;9.98;;;;;;;;;;5052730;28;20051;-80
2023/12/07 06:21:29;;;;;;;20.30;8.88;;;;;;;;;;5012993;28;20045;-79
2023/12/07 06:23:59;;;;;;;17.23;9.38;;;;;;;;;;5028412;28;20065;-79
2023/12/07 06:26:31;;;;;;;31.48;13.07;;;;;;;;;;5011972;28;20041;-78
2023/12/07 06:29:00;;;;;;;34.45;11.45;;;;;;;;;;5054979;28;20040;-79
2023/12/07 06:31:29;;;;;;;45.20;8.50;;;;;;;;;;5018712;28;20047;-79
2023/12/07 06:33:57;;;;;;;21.15;9.05;;;;;;;;;;5033251;28;20053;-79
2023/12/07 06:36:25;;;;;;;26.00;8.80;;;;;;;;;;5024024;28;20048;-79
2023/12/07 06:38:53;;;;;;;20.20;7.50;;;;;;;;;;5016888;28;20549;-79
2023/12/07 06:41:20;;;;;;;26.38;10.77;;;;;;;;;;5014934;28;20040;-79
2023/12/07 06:43:47;;;;;;;21.38;7.95;;;;;;;;;;5030357;28;20052;-79
2023/12/07 06:46:18;;;;;;;25.40;7.65;;;;;;;;;;5037428;28;20060;-80
2023/12/07 06:48:45;;;;;;;47.42;10.32;;;;;;;;;;5046219;28;20052;-79
2023/12/07 06:51:17;;;;;;;10.60;8.95;;;;;;;;;;5041789;28;20039;-80
2023/12/07 06:53:44;;;;;;;13.90;9.05;;;;;;;;;;5040854;28;20044;-80
2023/12/07 06:56:12;;;;;;;18.40;9.80;;;;;;;;;;5035661;28;20048;-79
2023/12/07 06:58:39;;;;;;;21.67;10.85;;;;;;;;;;5033357;28;20049;-80
2023/12/07 07:01:08;;;;;;;20.70;10.35;;;;;;;;;;5012332;28;20057;-80
2023/12/07 07:03:39;;;;;;;22.05;10.48;;;;;;;;;;5047627;28;20052;-80
2023/12/07 07:06:09;;;;;;;17.20;8.82;;;;;;;;;;5024999;28;20053;-80
2023/12/07 07:08:39;;;;;;;17.75;9.88;;;;;;;;;;5017104;28;20052;-80
2023/12/07 07:11:14;;;;;;;27.20;10.00;;;;;;;;;;5007423;28;20052;-80
2023/12/07 07:13:41;;;;;;;18.70;8.30;;;;;;;;;;5012685;28;20041;-80
2023/12/07 07:16:10;;;;;;;15.73;9.43;;;;;;;;;;5032920;28;20053;-80
2023/12/07 07:18:41;;;;;;;17.17;8.82;;;;;;;;;;5029400;28;20056;-80
2023/12/07 07:21:09;;;;;;;22.83;11.27;;;;;;;;;;5026847;28;20502;-80
2023/12/07 07:23:38;;;;;;;22.85;12.18;;;;;;;;;;5010704;28;20056;-80
2023/12/07 07:26:05;;;;;;;27.23;9.75;;;;;;;;;;5030021;28;20048;-80
2023/12/07 07:28:33;;;;;;;17.83;8.65;;;;;;;;;;5030891;28;20544;-80
2023/12/07 07:31:03;;;;;;;14.20;9.23;;;;;;;;;;5034580;28;20067;-80
2023/12/07 07:33:36;;;;;;;24.70;11.55;;;;;;;;;;5033729;28;20047;-80
2023/12/07 07:36:08;;;;;;;32.05;14.38;;;;;;;;;;5032186;28;20515;-80
2023/12/07 07:38:37;;;;;;;23.50;11.82;;;;;;;;;;5049623;28;20521;-80
2023/12/07 07:41:05;;;;;;;21.02;8.90;;;;;;;;;;5006391;28;20073;-80
2023/12/07 07:43:35;;;;;;;20.35;11.00;;;;;;;;;;5010567;28;20052;-80
2023/12/07 07:46:02;;;;;;;21.98;10.20;;;;;;;;;;5016668;28;20061;-80
2023/12/07 07:48:29;;;;;;;30.02;11.23;;;;;;;;;;5017028;28;20056;-80
2023/12/07 08:13:56;;;;;;;;;;;;;;;;;;;;;
2023/12/07 08:16:57;;;;;;;22.27;11.40;;;;;;;;;;4910835;29;20055;-81
2023/12/07 08:19:24;;;;;;;15.18;10.15;;;;;;;;;;4928150;29;20051;-81
2023/12/07 08:21:54;;;;;;;19.55;11.85;;;;;;;;;;4965259;28;20070;-81
2023/12/07 08:24:26;;;;;;;16.98;12.57;;;;;;;;;;4952631;29;20047;-82
2023/12/07 08:26:55;;;;;;;15.05;10.57;;;;;;;;;;4987105;28;20050;-82
2023/12/07 08:29:28;;;;;;;21.83;15.18;;;;;;;;;;5041657;28;20049;-82
2023/12/07 08:31:57;;;;;;;20.13;10.07;;;;;;;;;;5030554;28;20056;-82
2023/12/07 08:34:25;;;;;;;18.45;11.95;;;;;;;;;;5031536;28;20048;-82
2023/12/07 08:36:52;;;;;;;16.55;11.27;;;;;;;;;;5019982;28;20045;-82
2023/12/07 08:39:20;;;;;;;15.77;11.52;;;;;;;;;;5024172;28;20052;-82
2023/12/07 08:41:47;;;;;;;14.18;9.18;;;;;;;;;;5046088;28;20053;-82
2023/12/07 08:44:18;;;;;;;13.10;10.25;;;;;;;;;;5002326;28;20048;-82
2023/12/07 08:46:46;;;;;;;15.57;9.68;;;;;;;;;;5046584;28;20048;-82
2023/12/07 08:49:14;;;;;;;10.02;7.57;;;;;;;;;;5030250;28;20041;-82
2023/12/07 08:51:49;;;;;;;15.27;9.35;;;;;;;;;;5014216;28;20046;-81
2023/12/07 08:54:16;;;;;;;13.27;9.05;;;;;;;;;;5009490;28;20479;-81
2023/12/07 08:56:45;;;;;;;16.05;9.63;;;;;;;;;;5025336;28;20070;-81
2023/12/07 08:59:13;;;;;;;13.32;8.98;;;;;;;;;;5039598;28;20041;-81
2023/12/07 09:01:40;;;;;;;11.73;8.73;;;;;;;;;;5001856;28;20046;-81
2023/12/07 09:04:09;;;;;;;10.55;8.40;;;;;;;;;;5013174;28;20053;-81
2023/12/07 09:06:37;;;;;;;10.45;8.27;;;;;;;;;;4996696;28;20056;-81
2023/12/07 09:09:05;;;;;;;13.13;9.25;;;;;;;;;;5002287;28;20053;-81
2023/12/07 09:11:32;;;;;;;12.32;8.38;;;;;;;;;;4995955;28;20292;-81
2023/12/07 09:14:00;;;;;;;10.40;8.50;;;;;;;;;;5002902;28;20053;-82
2023/12/07 09:16:28;;;;;;;15.95;12.02;;;;;;;;;;5035435;28;20064;-81
2023/12/07 09:18:55;;;;;;;14.10;9.68;;;;;;;;;;5000269;28;20082;-81
2023/12/07 09:21:24;;;;;;;17.30;10.85;;;;;;;;;;4994913;28;20056;-81
2023/12/07 09:23:53;;;;;;;16.20;11.48;;;;;;;;;;4992955;28;20541;-81
2023/12/07 09:26:20;;;;;;;14.88;9.90;;;;;;;;;;5028861;28;20064;-81
2023/12/07 09:28:48;;;;;;;13.00;10.40;;;;;;;;;;5011942;28;20045;-82
2023/12/07 09:31:16;;;;;;;15.50;9.52;;;;;;;;;;5034276;28;20052;-82
2023/12/07 09:33:45;;;;;;;17.45;10.82;;;;;;;;;;5025183;28;20064;-82
2023/12/07 09:36:13;;;;;;;15.00;11.45;;;;;;;;;;5064921;28;20041;-82
2023/12/07 09:38:42;;;;;;;16.92;11.05;;;;;;;;;;5054539;28;20039;-82
2023/12/07 09:41:09;;;;;;;12.88;11.27;;;;;;;;;;5039119;28;20026;-81
2023/12/07 09:43:36;;;;;;;13.45;11.15;;;;;;;;;;5051338;28;20037;-82
2023/12/07 09:46:05;;;;;;;19.98;12.63;;;;;;;;;;5031187;28;20045;-81
2023/12/07 09:48:32;;;;;;;14.02;10.25;;;;;;;;;;5047745;28;20053;-81
2023/12/07 09:51:01;;;;;;;15.40;10.95;;;;;;;;;;5036643;28;20049;-81
2023/12/07 09:53:30;;;;;;;17.02;11.73;;;;;;;;;;5016643;28;20049;-81
2023/12/07 09:55:59;;;;;;;15.68;12.25;;;;;;;;;;5019084;28;20073;-81
2023/12/07 09:58:26;;;;;;;16.38;13.40;;;;;;;;;;5034289;28;20048;-82
2023/12/07 10:00:55;;;;;;;13.30;11.05;;;;;;;;;;5017084;28;20072;-81
2023/12/07 10:03:23;;;;;;;14.82;10.45;;;;;;;;;;5016729;28;20057;-81
2023/12/07 10:05:55;;;;;;;19.10;12.50;;;;;;;;;;5035721;28;20049;-81
2023/12/07 10:08:27;;;;;;;16.55;10.77;;;;;;;;;;5000352;28;20045;-82
2023/12/07 10:11:05;;;;;;;19.80;12.75;;;;;;;;;;5012413;28;20049;-81
2023/12/07 10:13:35;;;;;;;12.63;10.60;;;;;;;;;;5016800;28;20648;-81
2023/12/07 10:16:11;;;;;;;16.05;11.32;;;;;;;;;;5041166;28;20423;-81
2023/12/07 10:18:40;;;;;;;15.18;11.57;;;;;;;;;;5009306;28;20060;-81
2023/12/07 10:21:09;;;;;;;15.85;12.52;;;;;;;;;;4992454;28;20068;-81
2023/12/07 10:23:37;;;;;;;15.60;11.45;;;;;;;;;;5006765;28;20065;-81
2023/12/07 10:26:07;;;;;;;12.77;10.27;;;;;;;;;;5025224;28;20053;-81
2023/12/07 10:28:36;;;;;;;15.90;11.60;;;;;;;;;;5022026;28;20041;-81
2023/12/07 10:31:04;;;;;;;23.05;14.68;;;;;;;;;;5038771;28;20053;-81
2023/12/07 10:33:31;;;;;;;16.45;10.38;;;;;;;;;;5009221;28;20045;-81
2023/12/07 10:35:59;;;;;;;14.27;10.43;;;;;;;;;;5026089;28;20053;-81
2023/12/07 10:38:27;;;;;;;19.35;12.35;;;;;;;;;;5014808;28;20048;-81
2023/12/07 10:41:06;;;;;;;17.88;11.63;;;;;;;;;;5018705;28;20049;-81
2023/12/07 10:43:37;;;;;;;18.17;12.63;;;;;;;;;;5019452;28;20042;-81
2023/12/07 10:46:06;;;;;;;22.70;13.43;;;;;;;;;;5028833;28;20050;-81
2023/12/07 10:48:34;;;;;;;15.48;10.65;;;;;;;;;;5009034;28;20053;-81
2023/12/07 10:51:04;;;;;;;13.80;11.57;;;;;;;;;;5019828;28;20049;-81
2023/12/07 10:53:40;;;;;;;17.05;12.68;;;;;;;;;;5020407;28;20049;-81
2023/12/07 10:56:11;;;;;;;16.67;12.35;;;;;;;;;;5006789;28;20748;-81
2023/12/07 10:58:41;;;;;;;13.82;10.55;;;;;;;;;;5040927;28;20041;-81
2023/12/07 11:01:09;;;;;;;14.93;10.20;;;;;;;;;;5038458;28;20055;-81
2023/12/07 11:03:37;;;;;;;17.52;12.15;;;;;;;;;;5016599;28;20056;-81
2023/12/07 11:06:05;;;;;;;16.23;11.55;;;;;;;;;;5014891;28;20045;-81
2023/12/07 11:08:37;;;;;;;16.33;11.15;;;;;;;;;;5039794;28;20053;-82
2023/12/07 11:11:13;;;;;;;15.10;11.98;;;;;;;;;;5039386;28;20060;-81
2023/12/07 11:13:49;;;;;;;13.68;11.75;;;;;;;;;;5019447;28;20064;-82
2023/12/07 11:16:16;;;;;;;15.55;11.30;;;;;;;;;;5028152;28;20053;-81
2023/12/07 11:18:48;;;;;;;15.95;11.63;;;;;;;;;;5026453;28;20052;-81
2023/12/07 11:21:16;;;;;;;15.88;12.50;;;;;;;;;;5021538;28;20055;-81
2023/12/07 11:23:45;;;;;;;23.13;13.65;;;;;;;;;;5022081;28;20045;-81
2023/12/07 11:26:15;;;;;;;16.27;11.10;;;;;;;;;;5016166;28;20435;-81
2023/12/07 11:28:42;;;;;;;16.10;11.90;;;;;;;;;;4998091;28;20046;-81
2023/12/07 11:31:13;;;;;;;16.33;12.55;;;;;;;;;;5007331;28;20045;-81
2023/12/07 11:33:42;;;;;;;18.80;11.88;;;;;;;;;;5042287;28;20040;-81
2023/12/07 11:36:10;;;;;;;21.75;11.57;;;;;;;;;;5010982;28;20061;-81
2023/12/07 11:39:18;;;;;;;15.10;12.55;;;;;;;;;;5022596;28;20045;-81
2023/12/07 11:41:52;;;;;;;12.57;10.27;;;;;;;;;;5013733;28;20060;-81
2023/12/07 11:44:19;;;;;;;15.10;12.38;;;;;;;;;;5025739;28;20499;-81
2023/12/07 11:46:48;;;;;;;15.27;12.30;;;;;;;;;;5032408;28;20048;-81
2023/12/07 11:49:18;;;;;;;14.88;10.50;;;;;;;;;;5014734;28;20046;-81
2023/12/07 11:51:45;;;;;;;18.35;11.75;;;;;;;;;;5049320;28;20056;-81
2023/12/07 11:54:12;;;;;;;16.40;12.13;;;;;;;;;;5012943;28;20053;-81
2023/12/07 11:56:42;;;;;;;16.83;11.48;;;;;;;;;;5032756;28;20056;-81
2023/12/07 11:59:10;;;;;;;19.30;12.50;;;;;;;;;;5012647;28;20065;-81
2023/12/07 12:01:39;;;;;;;14.98;11.18;;;;;;;;;;5010449;28;20064;-81
2023/12/07 12:04:09;;;;;;;16.73;12.48;;;;;;;;;;5011605;28;20063;-81
2023/12/07 12:06:36;;;;;;;16.60;12.73;;;;;;;;;;5012104;28;20049;-81
2023/12/07 12:09:06;;;;;;;18.83;13.85;;;;;;;;;;5016973;28;20060;-81
2023/12/07 12:11:35;;;;;;;18.55;12.80;;;;;;;;;;5011328;28;20052;-81
2023/12/07 12:14:03;;;;;;;16.88;11.75;;;;;;;;;;5020236;28;20050;-81
2023/12/07 12:16:30;;;;;;;17.77;11.80;;;;;;;;;;5007540;28;20053;-81
2023/12/07 12:19:00;;;;;;;17.80;13.32;;;;;;;;;;5030500;28;20096;-81
2023/12/07 12:21:28;;;;;;;15.27;9.95;;;;;;;;;;5046586;28;20053;-81
2023/12/07 12:23:55;;;;;;;18.08;12.52;;;;;;;;;;5025621;28;20045;-81
2023/12/07 12:26:23;;;;;;;13.85;11.18;;;;;;;;;;5011032;28;20052;-82
2023/12/07 12:28:52;;;;;;;16.30;12.32;;;;;;;;;;5021681;28;20037;-81
2023/12/07 12:31:22;;;;;;;14.48;12.07;;;;;;;;;;5046190;28;20537;-81
2023/12/07 12:33:50;;;;;;;19.98;12.68;;;;;;;;;;5012904;28;20049;-81
2023/12/07 12:36:23;;;;;;;17.58;12.05;;;;;;;;;;5027952;28;20045;-81
2023/12/07 12:38:51;;;;;;;16.17;12.57;;;;;;;;;;5031187;28;20041;-81
2023/12/07 12:41:19;;;;;;;17.33;12.00;;;;;;;;;;5046206;28;20049;-81
2023/12/07 12:43:49;;;;;;;18.25;13.55;;;;;;;;;;5009124;28;20068;-81
2023/12/07 12:46:17;;;;;;;17.70;10.88;;;;;;;;;;5029253;28;20050;-81
2023/12/07 12:48:55;;;;;;;20.15;12.10;;;;;;;;;;5001716;28;20046;-81
2023/12/07 12:51:24;;;;;;;17.70;14.10;;;;;;;;;;5031351;28;20053;-81
2023/12/07 12:53:59;;;;;;;21.33;12.43;;;;;;;;;;5035621;28;20045;-81
2023/12/07 12:56:28;;;;;;;17.45;11.50;;;;;;;;;;5034673;28;20045;-81
2023/12/07 12:58:57;;;;;;;19.65;11.32;;;;;;;;;;5024056;28;20051;-81
2023/12/07 13:01:27;;;;;;;11.75;9.30;;;;;;;;;;5012407;28;20054;-81
2023/12/07 13:03:54;;;;;;;15.32;10.88;;;;;;;;;;5029079;28;20053;-81
2023/12/07 13:06:24;;;;;;;14.13;10.63;;;;;;;;;;5013308;28;20056;-81
2023/12/07 13:08:52;;;;;;;17.40;11.50;;;;;;;;;;5009432;28;20045;-81
2023/12/07 13:11:20;;;;;;;16.08;10.85;;;;;;;;;;5031419;28;20125;-81
2023/12/07 13:13:48;;;;;;;13.68;9.80;;;;;;;;;;5026603;28;20049;-81
2023/12/07 13:16:16;;;;;;;15.30;11.82;;;;;;;;;;5013080;28;20057;-81
2023/12/07 13:18:45;;;;;;;17.13;11.27;;;;;;;;;;5030220;28;20045;-81
2023/12/07 13:21:15;;;;;;;11.88;9.75;;;;;;;;;;5005258;28;20067;-81
2023/12/07 13:23:45;;;;;;;15.95;11.13;;;;;;;;;;5015389;28;20055;-81
2023/12/07 13:26:13;;;;;;;15.07;9.48;;;;;;;;;;5027143;28;20049;-81
2023/12/07 13:28:41;;;;;;;15.25;9.35;;;;;;;;;;5017628;28;20042;-81
2023/12/07 13:31:08;;;;;;;14.65;10.75;;;;;;;;;;5018398;28;20064;-81
2023/12/07 13:33:36;;;;;;;14.07;11.70;;;;;;;;;;5012472;28;20066;-81
2023/12/07 13:36:06;;;;;;;15.00;10.70;;;;;;;;;;5010616;28;20517;-81
2023/12/07 13:38:34;;;;;;;15.90;11.50;;;;;;;;;;5024591;28;20042;-81
2023/12/07 13:41:04;;;;;;;14.77;9.80;;;;;;;;;;5013868;28;20060;-81
2023/12/07 13:43:34;;;;;;;15.98;10.35;;;;;;;;;;5014622;28;20415;-81
2023/12/07 13:46:05;;;;;;;13.20;10.07;;;;;;;;;;5025425;28;20053;-81
2023/12/07 13:48:32;;;;;;;11.50;10.35;;;;;;;;;;5030919;28;20045;-81
2023/12/07 13:51:00;;;;;;;12.73;10.07;;;;;;;;;;5045914;22;20046;-80
2023/12/07 13:53:27;;;;;;;16.02;10.57;;;;;;;;;;4992127;28;20445;-79
2023/12/07 13:55:54;;;;;;;16.80;10.82;;;;;;;;;;5002654;28;20057;-79
2023/12/07 13:58:22;;;;;;;12.43;10.32;;;;;;;;;;4997917;28;20050;-80
2023/12/07 14:00:49;;;;;;;13.13;9.95;;;;;;;;;;4989803;28;20491;-80
2023/12/07 14:03:18;;;;;;;12.65;10.63;;;;;;;;;;4984496;28;20146;-80
2023/12/07 14:05:47;;;;;;;13.57;9.38;;;;;;;;;;4995582;28;20062;-80
2023/12/07 14:08:14;;;;;;;13.13;8.93;;;;;;;;;;5012246;28;20054;-80
2023/12/07 14:10:42;;;;;;;11.13;8.40;;;;;;;;;;4997275;28;20041;-80
2023/12/07 14:13:09;;;;;;;11.25;9.07;;;;;;;;;;5008225;28;20523;-80
2023/12/07 14:15:38;;;;;;;12.35;9.13;;;;;;;;;;4998543;28;20057;-80
2023/12/07 14:18:08;;;;;;;12.70;9.40;;;;;;;;;;5008097;28;20038;-80
2023/12/07 14:20:37;;;;;;;13.82;9.43;;;;;;;;;;4991290;28;20061;-81
2023/12/07 14:23:07;;;;;;;13.43;10.57;;;;;;;;;;4995534;28;20142;-80
2023/12/07 14:25:34;;;;;;;12.25;9.30;;;;;;;;;;5012961;28;20047;-80
2023/12/07 14:28:01;;;;;;;14.88;9.23;;;;;;;;;;4984850;28;20058;-80
2023/12/07 14:30:29;;;;;;;11.35;8.73;;;;;;;;;;5005605;28;20408;-80
2023/12/07 14:32:56;;;;;;;12.15;9.45;;;;;;;;;;4990456;28;20061;-80
2023/12/07 14:35:23;;;;;;;10.02;8.38;;;;;;;;;;5015693;28;20034;-80
2023/12/07 14:37:52;;;;;;;13.57;9.90;;;;;;;;;;4994506;28;20042;-80
2023/12/07 14:40:21;;;;;;;11.27;9.55;;;;;;;;;;5011636;28;20049;-80
2023/12/07 14:42:48;;;;;;;11.98;9.10;;;;;;;;;;5014622;28;20575;-80
2023/12/07 14:45:20;;;;;;;11.38;8.63;;;;;;;;;;5001496;28;20046;-80
2023/12/07 14:47:50;;;;;;;11.30;8.52;;;;;;;;;;5014444;28;20068;-80
2023/12/07 14:50:18;;;;;;;12.40;9.25;;;;;;;;;;4996720;28;20505;-80
2023/12/07 14:52:45;;;;;;;10.20;9.13;;;;;;;;;;4994760;28;20050;-80
2023/12/07 14:55:18;;;;;;;11.13;8.82;;;;;;;;;;4979474;28;20544;-80
2023/12/07 14:57:48;;;;;;;12.57;8.85;;;;;;;;;;4995618;28;20042;-80